sensor_id;sensor_type;location;lat;lon;timestamp;pressure;altitude;pressure_sealevel;temperature;humidity
40073;BME280;25774;52.256;9.356;2023-02-02T00:01:20;100363.63;;;4.17;100.00
40073;BME280;25774;52.256;9.356;2023-02-02T00:03:46;100363.00;;;4.09;100.00
40073;BME280;25774;52.256;9.356;2023-02-02T00:06:16;100354.44;;;4.04;100.00
40073;BME280;25774;52.256;9.356;2023-02-02T00:08:41;100359.75;;;4.01;100.00
40073;BME280;25774;52.256;9.356;2023-02-02T00:11:06;100362.09;;;4.10;100.00
40073;BME280;25774;52.256;9.356;2023-02-02T00:13:32;100367.22;;;4.13;100.00
40073;BME280;25774;52.256;9.356;2023-02-02T00:15:58;100368.41;;;4.03;100.00
40073;BME280;25774;52.256;9.356;2023-02-02T00:18:23;100362.69;;;3.90;100.00
40073;BME280;25774;52.256;9.356;2023-02-02T00:20:49;100369.59;;;3.91;100.00
40073;BME280;25774;52.256;9.356;2023-02-02T00:23:15;100380.56;;;4.04;100.00
40073;BME280;25774;52.256;9.356;2023-02-02T00:25:42;100372.19;;;3.93;100.00
40073;BME280;25774;52.256;9.356;2023-02-02T00:28:07;100365.06;;;3.98;100.00
40073;BME280;25774;52.256;9.356;2023-02-02T00:30:32;100368.16;;;4.12;100.00
40073;BME280;25774;52.256;9.356;2023-02-02T00:32:58;100359.75;;;4.01;100.00
40073;BME280;25774;52.256;9.356;2023-02-02T00:35:23;100358.88;;;4.02;100.00
40073;BME280;25774;52.256;9.356;2023-02-02T00:37:48;100354.69;;;3.95;100.00
40073;BME280;25774;52.256;9.356;2023-02-02T00:40:14;100367.31;;;4.10;100.00
40073;BME280;25774;52.256;9.356;2023-02-02T00:42:40;100368.31;;;4.06;100.00
40073;BME280;25774;52.256;9.356;2023-02-02T00:45:12;100366.41;;;4.11;100.00
40073;BME280;25774;52.256;9.356;2023-02-02T00:47:47;100368.56;;;4.27;100.00
40073;BME280;25774;52.256;9.356;2023-02-02T00:50:15;100352.19;;;4.22;100.00
40073;BME280;25774;52.256;9.356;2023-02-02T00:52:47;100363.72;;;4.14;100.00
40073;BME280;25774;52.256;9.356;2023-02-02T00:55:14;100357.34;;;4.25;100.00
40073;BME280;25774;52.256;9.356;2023-02-02T00:57:39;100344.50;;;4.17;100.00
40073;BME280;25774;52.256;9.356;2023-02-02T01:00:06;100347.19;;;4.14;100.00
40073;BME280;25774;52.256;9.356;2023-02-02T01:02:33;100353.16;;;4.17;100.00
40073;BME280;25774;52.256;9.356;2023-02-02T01:04:59;100378.72;;;4.37;100.00
40073;BME280;25774;52.256;9.356;2023-02-02T01:07:24;100350.44;;;4.22;100.00
40073;BME280;25774;52.256;9.356;2023-02-02T01:09:49;100370.59;;;4.17;100.00
40073;BME280;25774;52.256;9.356;2023-02-02T01:12:15;100383.13;;;4.35;100.00
40073;BME280;25774;52.256;9.356;2023-02-02T01:14:40;100391.91;;;4.33;100.00
40073;BME280;25774;52.256;9.356;2023-02-02T01:17:05;100385.97;;;4.28;100.00
40073;BME280;25774;52.256;9.356;2023-02-02T01:19:31;100400.28;;;4.44;100.00
40073;BME280;25774;52.256;9.356;2023-02-02T01:21:56;100391.19;;;4.28;100.00
40073;BME280;25774;52.256;9.356;2023-02-02T01:24:22;100395.34;;;4.35;100.00
40073;BME280;25774;52.256;9.356;2023-02-02T01:26:47;100391.13;;;4.31;100.00
40073;BME280;25774;52.256;9.356;2023-02-02T01:29:12;100381.63;;;4.27;100.00
40073;BME280;25774;52.256;9.356;2023-02-02T01:31:44;100399.31;;;4.47;100.00
40073;BME280;25774;52.256;9.356;2023-02-02T01:34:09;100406.41;;;4.43;100.00
40073;BME280;25774;52.256;9.356;2023-02-02T01:36:34;100402.53;;;4.27;100.00
40073;BME280;25774;52.256;9.356;2023-02-02T01:39:00;100414.31;;;4.40;100.00
40073;BME280;25774;52.256;9.356;2023-02-02T01:41:26;100407.63;;;4.31;100.00
40073;BME280;25774;52.256;9.356;2023-02-02T01:44:01;100391.16;;;4.29;100.00
40073;BME280;25774;52.256;9.356;2023-02-02T01:46:32;100412.81;;;4.33;100.00
40073;BME280;25774;52.256;9.356;2023-02-02T01:49:03;100400.66;;;4.32;100.00
40073;BME280;25774;52.256;9.356;2023-02-02T01:54:16;100409.66;;;4.22;100.00
40073;BME280;25774;52.256;9.356;2023-02-02T01:56:51;100415.31;;;4.37;100.00
40073;BME280;25774;52.256;9.356;2023-02-02T01:59:20;100405.28;;;4.22;100.00
40073;BME280;25774;52.256;9.356;2023-02-02T02:01:48;100409.84;;;4.15;100.00
40073;BME280;25774;52.256;9.356;2023-02-02T02:04:14;100409.09;;;4.10;100.00
40073;BME280;25774;52.256;9.356;2023-02-02T02:06:40;100427.19;;;4.18;100.00
40073;BME280;25774;52.256;9.356;2023-02-02T02:09:09;100415.06;;;4.15;100.00
40073;BME280;25774;52.256;9.356;2023-02-02T02:11:35;100429.00;;;4.14;100.00
40073;BME280;25774;52.256;9.356;2023-02-02T02:14:04;100418.50;;;3.86;100.00
40073;BME280;25774;52.256;9.356;2023-02-02T02:37:49;100454.41;;;4.09;100.00
40073;BME280;25774;52.256;9.356;2023-02-02T02:40:37;100464.00;;;4.09;100.00
40073;BME280;25774;52.256;9.356;2023-02-02T02:43:11;100467.41;;;4.11;100.00
40073;BME280;25774;52.256;9.356;2023-02-02T02:45:38;100464.25;;;4.00;100.00
40073;BME280;25774;52.256;9.356;2023-02-02T02:48:03;100477.06;;;4.09;100.00
40073;BME280;25774;52.256;9.356;2023-02-02T02:50:29;100484.91;;;4.09;100.00
40073;BME280;25774;52.256;9.356;2023-02-02T02:53:17;100490.97;;;4.09;100.00
40073;BME280;25774;52.256;9.356;2023-02-02T02:56:09;100486.53;;;4.13;100.00
40073;BME280;25774;52.256;9.356;2023-02-02T03:01:28;100503.13;;;4.10;100.00
40073;BME280;25774;52.256;9.356;2023-02-02T03:04:05;100502.56;;;3.99;100.00
40073;BME280;25774;52.256;9.356;2023-02-02T03:06:59;100501.59;;;4.03;100.00
40073;BME280;25774;52.256;9.356;2023-02-02T03:09:29;100499.88;;;4.02;100.00
40073;BME280;25774;52.256;9.356;2023-02-02T03:11:57;100488.91;;;3.89;100.00
40073;BME280;25774;52.256;9.356;2023-02-02T03:14:24;100498.19;;;4.00;100.00
40073;BME280;25774;52.256;9.356;2023-02-02T03:16:52;100507.78;;;3.99;100.00
40073;BME280;25774;52.256;9.356;2023-02-02T03:19:18;100514.81;;;3.95;100.00
40073;BME280;25774;52.256;9.356;2023-02-02T03:21:46;100503.53;;;3.95;100.00
40073;BME280;25774;52.256;9.356;2023-02-02T03:24:12;100510.56;;;3.93;100.00
40073;BME280;25774;52.256;9.356;2023-02-02T03:26:37;100519.78;;;4.06;100.00
40073;BME280;25774;52.256;9.356;2023-02-02T03:29:03;100520.78;;;4.02;100.00
40073;BME280;25774;52.256;9.356;2023-02-02T03:31:31;100527.84;;;3.97;100.00
40073;BME280;25774;52.256;9.356;2023-02-02T03:33:57;100536.38;;;4.04;100.00
40073;BME280;25774;52.256;9.356;2023-02-02T03:36:22;100544.09;;;4.08;100.00
40073;BME280;25774;52.256;9.356;2023-02-02T03:38:47;100546.75;;;4.07;100.00
40073;BME280;25774;52.256;9.356;2023-02-02T03:41:13;100551.06;;;4.08;100.00
40073;BME280;25774;52.256;9.356;2023-02-02T03:43:39;100551.16;;;4.05;100.00
40073;BME280;25774;52.256;9.356;2023-02-02T03:46:05;100560.59;;;4.10;100.00
40073;BME280;25774;52.256;9.356;2023-02-02T03:48:34;100575.97;;;4.21;100.00
40073;BME280;25774;52.256;9.356;2023-02-02T03:51:00;100582.91;;;4.22;100.00
40073;BME280;25774;52.256;9.356;2023-02-02T03:53:25;100575.25;;;4.14;100.00
40073;BME280;25774;52.256;9.356;2023-02-02T03:55:51;100577.16;;;4.09;100.00
40073;BME280;25774;52.256;9.356;2023-02-02T03:58:17;100592.38;;;4.26;100.00
40073;BME280;25774;52.256;9.356;2023-02-02T04:00:42;100591.91;;;4.10;100.00
40073;BME280;25774;52.256;9.356;2023-02-02T04:03:08;100592.75;;;4.12;100.00
40073;BME280;25774;52.256;9.356;2023-02-02T04:05:33;100597.00;;;4.16;100.00
40073;BME280;25774;52.256;9.356;2023-02-02T04:08:00;100599.38;;;4.26;100.00
40073;BME280;25774;52.256;9.356;2023-02-02T04:10:26;100605.38;;;4.29;100.00
40073;BME280;25774;52.256;9.356;2023-02-02T04:12:51;100604.66;;;4.23;100.00
40073;BME280;25774;52.256;9.356;2023-02-02T04:15:16;100607.34;;;4.19;100.00
40073;BME280;25774;52.256;9.356;2023-02-02T04:17:42;100618.41;;;4.31;100.00
40073;BME280;25774;52.256;9.356;2023-02-02T04:20:09;100609.28;;;4.11;100.00
40073;BME280;25774;52.256;9.356;2023-02-02T04:22:35;100624.94;;;4.13;100.00
40073;BME280;25774;52.256;9.356;2023-02-02T04:25:00;100633.28;;;4.27;100.00
40073;BME280;25774;52.256;9.356;2023-02-02T04:27:25;100627.34;;;4.20;100.00
40073;BME280;25774;52.256;9.356;2023-02-02T04:29:51;100633.41;;;4.23;100.00
40073;BME280;25774;52.256;9.356;2023-02-02T04:32:17;100634.19;;;4.26;100.00
40073;BME280;25774;52.256;9.356;2023-02-02T04:34:44;100642.09;;;4.23;100.00
40073;BME280;25774;52.256;9.356;2023-02-02T04:37:10;100624.81;;;4.17;100.00
40073;BME280;25774;52.256;9.356;2023-02-02T04:39:36;100631.41;;;4.32;100.00
40073;BME280;25774;52.256;9.356;2023-02-02T04:42:01;100635.00;;;4.28;100.00
40073;BME280;25774;52.256;9.356;2023-02-02T04:44:27;100631.84;;;4.15;100.00
40073;BME280;25774;52.256;9.356;2023-02-02T04:46:53;100635.25;;;4.17;100.00
40073;BME280;25774;52.256;9.356;2023-02-02T04:49:18;100647.31;;;4.23;100.00
40073;BME280;25774;52.256;9.356;2023-02-02T04:51:44;100635.25;;;4.19;100.00
40073;BME280;25774;52.256;9.356;2023-02-02T04:54:09;100643.69;;;4.29;100.00
40073;BME280;25774;52.256;9.356;2023-02-02T04:56:35;100641.25;;;4.21;100.00
40073;BME280;25774;52.256;9.356;2023-02-02T04:59:00;100642.06;;;4.25;100.00
40073;BME280;25774;52.256;9.356;2023-02-02T05:01:26;100642.72;;;4.33;100.00
40073;BME280;25774;52.256;9.356;2023-02-02T05:03:51;100638.75;;;4.18;100.00
40073;BME280;25774;52.256;9.356;2023-02-02T05:06:17;100649.09;;;4.21;100.00
40073;BME280;25774;52.256;9.356;2023-02-02T05:08:46;100642.63;;;4.36;100.00
40073;BME280;25774;52.256;9.356;2023-02-02T05:11:17;100651.53;;;4.29;100.00
40073;BME280;25774;52.256;9.356;2023-02-02T05:13:51;100662.69;;;4.35;100.00
40073;BME280;25774;52.256;9.356;2023-02-02T05:16:18;100662.41;;;4.46;100.00
40073;BME280;25774;52.256;9.356;2023-02-02T05:18:51;100663.66;;;4.31;100.00
40073;BME280;25774;52.256;9.356;2023-02-02T05:21:17;100662.00;;;4.29;100.00
40073;BME280;25774;52.256;9.356;2023-02-02T05:23:45;100671.06;;;4.48;100.00
40073;BME280;25774;52.256;9.356;2023-02-02T05:26:13;100673.13;;;4.35;100.00
40073;BME280;25774;52.256;9.356;2023-02-02T05:28:40;100679.00;;;4.45;100.00
40073;BME280;25774;52.256;9.356;2023-02-02T05:31:07;100681.69;;;4.42;100.00
40073;BME280;25774;52.256;9.356;2023-02-02T05:33:32;100687.59;;;4.50;100.00
40073;BME280;25774;52.256;9.356;2023-02-02T05:35:58;100671.91;;;4.50;100.00
40073;BME280;25774;52.256;9.356;2023-02-02T05:38:23;100672.53;;;4.58;100.00
40073;BME280;25774;52.256;9.356;2023-02-02T05:40:52;100669.97;;;4.57;100.00
40073;BME280;25774;52.256;9.356;2023-02-02T05:43:18;100671.75;;;4.56;100.00
40073;BME280;25774;52.256;9.356;2023-02-02T05:45:43;100675.13;;;4.60;100.00
40073;BME280;25774;52.256;9.356;2023-02-02T05:48:12;100678.78;;;4.53;100.00
40073;BME280;25774;52.256;9.356;2023-02-02T05:50:40;100675.91;;;4.63;100.00
40073;BME280;25774;52.256;9.356;2023-02-02T05:53:07;100665.00;;;4.48;100.00
40073;BME280;25774;52.256;9.356;2023-02-02T05:55:33;100679.31;;;4.65;100.00
40073;BME280;25774;52.256;9.356;2023-02-02T05:57:59;100680.19;;;4.66;100.00
40073;BME280;25774;52.256;9.356;2023-02-02T06:00:24;100687.81;;;4.74;100.00
40073;BME280;25774;52.256;9.356;2023-02-02T06:02:51;100679.28;;;4.67;100.00
40073;BME280;25774;52.256;9.356;2023-02-02T06:05:18;100678.47;;;4.65;100.00
40073;BME280;25774;52.256;9.356;2023-02-02T06:07:43;100693.81;;;4.79;100.00
40073;BME280;25774;52.256;9.356;2023-02-02T06:10:09;100689.53;;;4.75;100.00
40073;BME280;25774;52.256;9.356;2023-02-02T06:12:34;100690.28;;;4.80;100.00
40073;BME280;25774;52.256;9.356;2023-02-02T06:14:59;100695.59;;;4.77;100.00
40073;BME280;25774;52.256;9.356;2023-02-02T06:17:25;100690.28;;;4.80;100.00
40073;BME280;25774;52.256;9.356;2023-02-02T06:19:50;100683.66;;;4.66;100.00
40073;BME280;25774;52.256;9.356;2023-02-02T06:22:16;100705.41;;;5.01;100.00
40073;BME280;25774;52.256;9.356;2023-02-02T06:24:41;100695.22;;;4.90;100.00
40073;BME280;25774;52.256;9.356;2023-02-02T06:27:06;100704.44;;;5.04;100.00
40073;BME280;25774;52.256;9.356;2023-02-02T06:29:32;100695.88;;;4.99;100.00
40073;BME280;25774;52.256;9.356;2023-02-02T06:31:57;100698.84;;;4.85;100.00
40073;BME280;25774;52.256;9.356;2023-02-02T06:34:23;100714.28;;;4.94;100.00
40073;BME280;25774;52.256;9.356;2023-02-02T06:36:49;100710.88;;;4.92;100.00
40073;BME280;25774;52.256;9.356;2023-02-02T06:39:14;100717.81;;;4.93;100.00
40073;BME280;25774;52.256;9.356;2023-02-02T06:41:40;100715.97;;;4.97;100.00
40073;BME280;25774;52.256;9.356;2023-02-02T06:44:06;100725.72;;;5.23;100.00
40073;BME280;25774;52.256;9.356;2023-02-02T06:46:31;100719.31;;;5.02;100.00
40073;BME280;25774;52.256;9.356;2023-02-02T06:48:56;100726.03;;;5.10;100.00
40073;BME280;25774;52.256;9.356;2023-02-02T06:51:22;100726.88;;;5.12;100.00
40073;BME280;25774;52.256;9.356;2023-02-02T06:53:47;100729.22;;;5.22;100.00
40073;BME280;25774;52.256;9.356;2023-02-02T06:56:14;100732.06;;;5.14;100.00
40073;BME280;25774;52.256;9.356;2023-02-02T06:58:40;100723.53;;;5.07;100.00
40073;BME280;25774;52.256;9.356;2023-02-02T07:01:08;100719.50;;;4.94;100.00
40073;BME280;25774;52.256;9.356;2023-02-02T07:03:34;100733.88;;;5.12;100.00
40073;BME280;25774;52.256;9.356;2023-02-02T07:06:09;100739.63;;;5.25;100.00
40073;BME280;25774;52.256;9.356;2023-02-02T07:08:35;100735.97;;;5.30;100.00
40073;BME280;25774;52.256;9.356;2023-02-02T07:11:00;100738.00;;;5.21;100.00
40073;BME280;25774;52.256;9.356;2023-02-02T07:13:26;100744.19;;;5.17;100.00
40073;BME280;25774;52.256;9.356;2023-02-02T07:15:51;100740.94;;;5.08;100.00
40073;BME280;25774;52.256;9.356;2023-02-02T07:18:18;100754.41;;;5.26;100.00
40073;BME280;25774;52.256;9.356;2023-02-02T07:20:44;100747.53;;;5.22;100.00
40073;BME280;25774;52.256;9.356;2023-02-02T07:23:09;100747.53;;;5.22;100.00
40073;BME280;25774;52.256;9.356;2023-02-02T07:25:34;100753.06;;;5.42;100.00
40073;BME280;25774;52.256;9.356;2023-02-02T07:28:00;100733.88;;;5.10;100.00
40073;BME280;25774;52.256;9.356;2023-02-02T07:30:25;100741.56;;;5.17;100.00
40073;BME280;25774;52.256;9.356;2023-02-02T07:32:59;100738.00;;;5.19;100.00
40073;BME280;25774;52.256;9.356;2023-02-02T07:35:26;100716.97;;;4.93;100.00
40073;BME280;25774;52.256;9.356;2023-02-02T07:37:52;100708.19;;;4.95;100.00
40073;BME280;25774;52.256;9.356;2023-02-02T07:40:18;100711.66;;;4.96;100.00
40073;BME280;25774;52.256;9.356;2023-02-02T07:42:45;100704.34;;;5.07;100.00
40073;BME280;25774;52.256;9.356;2023-02-02T07:45:12;100696.94;;;4.92;100.00
40073;BME280;25774;52.256;9.356;2023-02-02T07:47:37;100696.72;;;4.99;100.00
40073;BME280;25774;52.256;9.356;2023-02-02T07:50:05;100695.81;;;5.00;100.00
40073;BME280;25774;52.256;9.356;2023-02-02T07:52:30;100687.53;;;4.84;100.00
40073;BME280;25774;52.256;9.356;2023-02-02T07:54:55;100687.19;;;4.97;100.00
40073;BME280;25774;52.256;9.356;2023-02-02T07:57:22;100688.13;;;4.94;100.00
40073;BME280;25774;52.256;9.356;2023-02-02T07:59:47;100688.50;;;4.82;100.00
40073;BME280;25774;52.256;9.356;2023-02-02T08:02:15;100690.81;;;4.93;100.00
40073;BME280;25774;52.256;9.356;2023-02-02T08:04:40;100679.94;;;4.75;100.00
40073;BME280;25774;52.256;9.356;2023-02-02T08:07:05;100696.66;;;5.01;100.00
40073;BME280;25774;52.256;9.356;2023-02-02T08:09:31;100691.75;;;4.90;100.00
40073;BME280;25774;52.256;9.356;2023-02-02T08:11:58;100703.78;;;4.96;100.00
40073;BME280;25774;52.256;9.356;2023-02-02T08:14:26;100713.88;;;5.09;100.00
40073;BME280;25774;52.256;9.356;2023-02-02T08:16:51;100697.63;;;4.98;100.00
40073;BME280;25774;52.256;9.356;2023-02-02T08:19:17;100708.63;;;5.09;100.00
40073;BME280;25774;52.256;9.356;2023-02-02T08:21:42;100708.25;;;4.92;100.00
40073;BME280;25774;52.256;9.356;2023-02-02T08:24:07;100706.34;;;4.99;100.00
40073;BME280;25774;52.256;9.356;2023-02-02T08:26:33;100720.03;;;5.07;100.00
40073;BME280;25774;52.256;9.356;2023-02-02T08:29:01;100722.22;;;4.91;100.00
40073;BME280;25774;52.256;9.356;2023-02-02T08:31:36;100727.34;;;4.96;100.00
40073;BME280;25774;52.256;9.356;2023-02-02T08:34:02;100719.91;;;4.80;100.00
40073;BME280;25774;52.256;9.356;2023-02-02T08:36:29;100732.56;;;4.96;100.00
40073;BME280;25774;52.256;9.356;2023-02-02T08:38:55;100727.53;;;4.88;100.00
40073;BME280;25774;52.256;9.356;2023-02-02T08:41:24;100737.81;;;4.94;100.00
40073;BME280;25774;52.256;9.356;2023-02-02T08:43:50;100743.75;;;5.01;100.00
40073;BME280;25774;52.256;9.356;2023-02-02T08:46:17;100749.41;;;5.18;100.00
40073;BME280;25774;52.256;9.356;2023-02-02T08:48:43;100754.34;;;4.96;100.00
40073;BME280;25774;52.256;9.356;2023-02-02T08:51:09;100757.63;;;5.04;100.00
40073;BME280;25774;52.256;9.356;2023-02-02T08:53:36;100747.03;;;4.76;100.00
40073;BME280;25774;52.256;9.356;2023-02-02T08:56:10;100769.38;;;5.21;100.00
40073;BME280;25774;52.256;9.356;2023-02-02T08:58:35;100758.66;;;4.99;100.00
40073;BME280;25774;52.256;9.356;2023-02-02T09:03:39;100759.25;;;5.08;100.00
40073;BME280;25774;52.256;9.356;2023-02-02T09:06:07;100763.78;;;5.02;100.00
40073;BME280;25774;52.256;9.356;2023-02-02T09:08:34;100776.38;;;5.20;100.00
40073;BME280;25774;52.256;9.356;2023-02-02T09:11:11;100774.47;;;5.27;100.00
40073;BME280;25774;52.256;9.356;2023-02-02T09:13:38;100785.63;;;5.32;100.00
40073;BME280;25774;52.256;9.356;2023-02-02T09:16:04;100787.81;;;5.49;100.00
40073;BME280;25774;52.256;9.356;2023-02-02T09:18:30;100786.16;;;5.45;100.00
40073;BME280;25774;52.256;9.356;2023-02-02T09:20:59;100786.22;;;5.43;100.00
40073;BME280;25774;52.256;9.356;2023-02-02T09:23:25;100795.53;;;5.53;100.00
40073;BME280;25774;52.256;9.356;2023-02-02T09:25:51;100796.06;;;5.65;100.00
40073;BME280;25774;52.256;9.356;2023-02-02T09:28:16;100777.53;;;5.41;100.00
40073;BME280;25774;52.256;9.356;2023-02-02T09:30:43;100780.03;;;5.46;100.00
40073;BME280;25774;52.256;9.356;2023-02-02T09:33:09;100799.72;;;5.59;100.00
40073;BME280;25774;52.256;9.356;2023-02-02T09:35:34;100789.84;;;5.69;100.00
40073;BME280;25774;52.256;9.356;2023-02-02T09:38:00;100792.81;;;5.56;100.00
40073;BME280;25774;52.256;9.356;2023-02-02T09:40:26;100813.69;;;5.89;100.00
40073;BME280;25774;52.256;9.356;2023-02-02T09:43:06;100806.44;;;5.68;100.00
40073;BME280;25774;52.256;9.356;2023-02-02T09:48:35;100803.31;;;5.86;100.00
40073;BME280;25774;52.256;9.356;2023-02-02T09:51:10;100790.44;;;5.49;100.00
40073;BME280;25774;52.256;9.356;2023-02-02T09:53:42;100822.66;;;6.12;100.00
40073;BME280;25774;52.256;9.356;2023-02-02T09:56:15;100805.13;;;5.84;100.00
40073;BME280;25774;52.256;9.356;2023-02-02T09:59:11;100827.78;;;6.16;100.00
40073;BME280;25774;52.256;9.356;2023-02-02T10:01:41;100809.47;;;5.83;100.00
40073;BME280;25774;52.256;9.356;2023-02-02T10:04:23;100820.03;;;6.12;100.00
40073;BME280;25774;52.256;9.356;2023-02-02T10:06:56;100812.34;;;6.07;100.00
40073;BME280;25774;52.256;9.356;2023-02-02T10:15:01;100820.09;;;6.10;100.00
40073;BME280;25774;52.256;9.356;2023-02-02T10:17:38;100836.53;;;6.15;100.00
40073;BME280;25774;52.256;9.356;2023-02-02T10:23:22;100826.00;;;6.17;100.00
40073;BME280;25774;52.256;9.356;2023-02-02T10:31:16;100836.13;;;5.99;100.00
40073;BME280;25774;52.256;9.356;2023-02-02T10:33:51;100837.28;;;6.19;100.00
40073;BME280;25774;52.256;9.356;2023-02-02T10:44:48;100849.59;;;6.17;100.00
40073;BME280;25774;52.256;9.356;2023-02-02T10:47:27;100832.44;;;6.07;100.00
40073;BME280;25774;52.256;9.356;2023-02-02T10:52:44;100853.31;;;6.38;100.00
40073;BME280;25774;52.256;9.356;2023-02-02T10:55:27;100848.78;;;6.43;100.00
40073;BME280;25774;52.256;9.356;2023-02-02T11:03:12;100837.69;;;6.35;100.00
40073;BME280;25774;52.256;9.356;2023-02-02T11:05:38;100860.31;;;6.37;100.00
40073;BME280;25774;52.256;9.356;2023-02-02T11:08:31;100856.50;;;6.19;100.00
40073;BME280;25774;52.256;9.356;2023-02-02T11:10:57;100872.56;;;6.37;100.00
40073;BME280;25774;52.256;9.356;2023-02-02T11:13:37;100869.53;;;6.50;100.00
40073;BME280;25774;52.256;9.356;2023-02-02T11:16:31;100886.06;;;6.52;100.00
40073;BME280;25774;52.256;9.356;2023-02-02T11:18:57;100897.19;;;6.61;100.00
40073;BME280;25774;52.256;9.356;2023-02-02T11:21:26;100872.47;;;6.40;100.00
40073;BME280;25774;52.256;9.356;2023-02-02T11:24:01;100901.06;;;6.77;100.00
40073;BME280;25774;52.256;9.356;2023-02-02T11:26:44;100900.59;;;6.91;100.00
40073;BME280;25774;52.256;9.356;2023-02-02T11:29:19;100866.91;;;6.50;100.00
40073;BME280;25774;52.256;9.356;2023-02-02T11:31:52;100882.16;;;6.66;100.00
40073;BME280;25774;52.256;9.356;2023-02-02T11:34:23;100882.06;;;6.69;100.00
40073;BME280;25774;52.256;9.356;2023-02-02T11:37:11;100879.97;;;6.80;100.00
40073;BME280;25774;52.256;9.356;2023-02-02T11:39:41;100874.34;;;6.92;100.00
40073;BME280;25774;52.256;9.356;2023-02-02T11:42:16;100866.00;;;6.51;100.00
40073;BME280;25774;52.256;9.356;2023-02-02T11:44:46;100901.50;;;7.18;100.00
40073;BME280;25774;52.256;9.356;2023-02-02T11:47:23;100887.59;;;6.88;100.00
40073;BME280;25774;52.256;9.356;2023-02-02T11:49:50;100882.81;;;6.72;100.00
40073;BME280;25774;52.256;9.356;2023-02-02T11:52:23;100877.00;;;6.63;100.00
40073;BME280;25774;52.256;9.356;2023-02-02T11:54:51;100880.00;;;6.79;100.00
40073;BME280;25774;52.256;9.356;2023-02-02T11:57:22;100875.41;;;6.85;100.00
40073;BME280;25774;52.256;9.356;2023-02-02T11:59:50;100853.88;;;6.47;100.00
40073;BME280;25774;52.256;9.356;2023-02-02T12:02:33;100866.19;;;6.45;100.00
40073;BME280;25774;52.256;9.356;2023-02-02T12:07:46;100877.78;;;6.66;100.00
40073;BME280;25774;52.256;9.356;2023-02-02T12:10:19;100892.00;;;6.86;100.00
40073;BME280;25774;52.256;9.356;2023-02-02T12:13:11;100878.88;;;6.59;100.00
40073;BME280;25774;52.256;9.356;2023-02-02T12:21:16;100883.44;;;6.81;100.00
40073;BME280;25774;52.256;9.356;2023-02-02T12:23:52;100894.44;;;6.92;100.00
40073;BME280;25774;52.256;9.356;2023-02-02T12:26:32;100902.66;;;7.09;100.00
40073;BME280;25774;52.256;9.356;2023-02-02T12:29:33;100896.63;;;7.06;100.00
40073;BME280;25774;52.256;9.356;2023-02-02T12:44:00;100908.25;;;7.25;100.00
40073;BME280;25774;52.256;9.356;2023-02-02T12:46:54;100900.16;;;7.31;100.00
40073;BME280;25774;52.256;9.356;2023-02-02T12:49:38;100888.13;;;7.51;100.00
40073;BME280;25774;52.256;9.356;2023-02-02T12:52:39;100877.00;;;6.91;100.00
40073;BME280;25774;52.256;9.356;2023-02-02T12:55:30;100905.31;;;7.59;100.00
40073;BME280;25774;52.256;9.356;2023-02-02T12:58:08;100886.38;;;7.50;100.00
40073;BME280;25774;52.256;9.356;2023-02-02T13:00:44;100888.44;;;7.41;100.00
40073;BME280;25774;52.256;9.356;2023-02-02T13:08:44;100863.81;;;7.19;100.00
40073;BME280;25774;52.256;9.356;2023-02-02T13:11:17;100862.28;;;7.63;100.00
40073;BME280;25774;52.256;9.356;2023-02-02T13:14:20;100888.31;;;7.95;100.00
40073;BME280;25774;52.256;9.356;2023-02-02T13:16:52;100881.03;;;7.53;100.00
40073;BME280;25774;52.256;9.356;2023-02-02T13:19:45;100892.28;;;7.81;100.00
40073;BME280;25774;52.256;9.356;2023-02-02T13:22:19;100868.78;;;7.53;100.00
40073;BME280;25774;52.256;9.356;2023-02-02T13:24:48;100864.84;;;7.65;100.00
40073;BME280;25774;52.256;9.356;2023-02-02T13:27:18;100866.31;;;7.72;100.00
40073;BME280;25774;52.256;9.356;2023-02-02T13:32:32;100897.56;;;8.28;100.00
40073;BME280;25774;52.256;9.356;2023-02-02T13:35:17;100863.78;;;7.94;100.00
40073;BME280;25774;52.256;9.356;2023-02-02T13:37:52;100866.81;;;7.83;100.00
40073;BME280;25774;52.256;9.356;2023-02-02T13:40:37;100875.09;;;7.96;100.00
40073;BME280;25774;52.256;9.356;2023-02-02T13:46:21;100857.13;;;7.35;100.00
40073;BME280;25774;52.256;9.356;2023-02-02T13:54:56;100895.81;;;7.55;100.00
40073;BME280;25774;52.256;9.356;2023-02-02T13:57:48;100897.13;;;7.43;100.00
40073;BME280;25774;52.256;9.356;2023-02-02T14:00:21;100908.72;;;7.63;100.00
40073;BME280;25774;52.256;9.356;2023-02-02T14:02:53;100908.75;;;7.86;100.00
40073;BME280;25774;52.256;9.356;2023-02-02T14:05:23;100872.56;;;7.44;100.00
40073;BME280;25774;52.256;9.356;2023-02-02T14:07:54;100884.19;;;7.11;100.00
40073;BME280;25774;52.256;9.356;2023-02-02T14:10:24;100901.75;;;7.35;100.00
40073;BME280;25774;52.256;9.356;2023-02-02T14:12:51;100861.31;;;6.89;100.00
40073;BME280;25774;52.256;9.356;2023-02-02T14:15:36;100903.53;;;7.35;100.00
40073;BME280;25774;52.256;9.356;2023-02-02T14:18:02;100910.50;;;7.36;100.00
40073;BME280;25774;52.256;9.356;2023-02-02T14:20:45;100900.41;;;7.23;100.00
40073;BME280;25774;52.256;9.356;2023-02-02T14:26:18;100917.72;;;7.29;100.00
40073;BME280;25774;52.256;9.356;2023-02-02T14:28:47;100905.31;;;7.08;100.00
40073;BME280;25774;52.256;9.356;2023-02-02T14:31:26;100932.66;;;7.27;100.00
40073;BME280;25774;52.256;9.356;2023-02-02T14:34:13;100955.00;;;7.90;100.00
40073;BME280;25774;52.256;9.356;2023-02-02T14:36:39;100935.22;;;7.80;100.00
40073;BME280;25774;52.256;9.356;2023-02-02T14:39:17;100917.22;;;7.44;100.00
40073;BME280;25774;52.256;9.356;2023-02-02T14:41:54;100934.06;;;7.64;100.00
40073;BME280;25774;52.256;9.356;2023-02-02T14:47:51;100936.75;;;7.36;100.00
40073;BME280;25774;52.256;9.356;2023-02-02T14:58:34;100932.66;;;7.01;100.00